sensor_id;sensor_type;location;lat;lon;timestamp;P1;durP1;ratioP1;P2;durP2;ratioP2
84757;SDS011;74981;52.476;16.656;2024-03-02T00:01:00;73.40;;;37.80;;
84757;SDS011;74981;52.476;16.656;2024-03-02T00:06:22;63.60;;;34.80;;
84757;SDS011;74981;52.476;16.656;2024-03-02T00:11:25;68.70;;;37.70;;
84757;SDS011;74981;52.476;16.656;2024-03-02T00:16:30;66.00;;;35.70;;
84757;SDS011;74981;52.476;16.656;2024-03-02T00:21:32;67.80;;;36.40;;
84757;SDS011;74981;52.476;16.656;2024-03-02T00:26:35;66.80;;;36.50;;
84757;SDS011;74981;52.476;16.656;2024-03-02T00:31:37;64.30;;;33.50;;
84757;SDS011;74981;52.476;16.656;2024-03-02T00:36:41;61.30;;;32.80;;
84757;SDS011;74981;52.476;16.656;2024-03-02T00:41:44;65.70;;;34.10;;
84757;SDS011;74981;52.476;16.656;2024-03-02T00:46:46;66.20;;;35.30;;
84757;SDS011;74981;52.476;16.656;2024-03-02T00:51:49;69.50;;;34.80;;
84757;SDS011;74981;52.476;16.656;2024-03-02T00:56:53;63.60;;;33.00;;
84757;SDS011;74981;52.476;16.656;2024-03-02T01:01:56;66.80;;;33.80;;
84757;SDS011;74981;52.476;16.656;2024-03-02T01:06:58;65.20;;;33.60;;
84757;SDS011;74981;52.476;16.656;2024-03-02T01:12:00;67.20;;;34.10;;
84757;SDS011;74981;52.476;16.656;2024-03-02T01:17:02;66.50;;;35.70;;
84757;SDS011;74981;52.476;16.656;2024-03-02T01:22:05;58.80;;;29.30;;
84757;SDS011;74981;52.476;16.656;2024-03-02T01:27:07;71.90;;;36.60;;
84757;SDS011;74981;52.476;16.656;2024-03-02T01:32:10;72.50;;;36.90;;
84757;SDS011;74981;52.476;16.656;2024-03-02T01:37:12;77.50;;;37.20;;
84757;SDS011;74981;52.476;16.656;2024-03-02T01:42:14;74.10;;;35.40;;
84757;SDS011;74981;52.476;16.656;2024-03-02T01:47:17;71.10;;;33.00;;
84757;SDS011;74981;52.476;16.656;2024-03-02T01:52:19;67.50;;;32.20;;
84757;SDS011;74981;52.476;16.656;2024-03-02T01:57:21;73.20;;;35.00;;
84757;SDS011;74981;52.476;16.656;2024-03-02T02:02:24;65.10;;;33.40;;
84757;SDS011;74981;52.476;16.656;2024-03-02T02:07:26;71.00;;;32.70;;
84757;SDS011;74981;52.476;16.656;2024-03-02T02:12:28;80.10;;;39.40;;
84757;SDS011;74981;52.476;16.656;2024-03-02T02:17:31;70.90;;;34.30;;
84757;SDS011;74981;52.476;16.656;2024-03-02T02:22:33;70.30;;;34.30;;
84757;SDS011;74981;52.476;16.656;2024-03-02T02:27:35;69.00;;;36.10;;
84757;SDS011;74981;52.476;16.656;2024-03-02T02:32:37;71.20;;;34.30;;
84757;SDS011;74981;52.476;16.656;2024-03-02T02:37:40;70.20;;;32.50;;
84757;SDS011;74981;52.476;16.656;2024-03-02T02:42:42;71.20;;;33.40;;
84757;SDS011;74981;52.476;16.656;2024-03-02T02:47:44;65.70;;;31.20;;
84757;SDS011;74981;52.476;16.656;2024-03-02T02:52:47;65.50;;;31.70;;
84757;SDS011;74981;52.476;16.656;2024-03-02T02:57:49;67.00;;;32.00;;
84757;SDS011;74981;52.476;16.656;2024-03-02T03:02:52;72.10;;;31.50;;
84757;SDS011;74981;52.476;16.656;2024-03-02T03:07:54;70.60;;;32.50;;
84757;SDS011;74981;52.476;16.656;2024-03-02T03:12:56;58.80;;;30.20;;
84757;SDS011;74981;52.476;16.656;2024-03-02T03:17:59;53.60;;;27.60;;
84757;SDS011;74981;52.476;16.656;2024-03-02T03:23:01;59.20;;;29.00;;
84757;SDS011;74981;52.476;16.656;2024-03-02T03:28:04;48.30;;;23.60;;
84757;SDS011;74981;52.476;16.656;2024-03-02T03:33:06;56.00;;;26.10;;
84757;SDS011;74981;52.476;16.656;2024-03-02T03:38:08;52.40;;;25.70;;
84757;SDS011;74981;52.476;16.656;2024-03-02T03:43:11;52.20;;;27.80;;
84757;SDS011;74981;52.476;16.656;2024-03-02T03:48:13;53.70;;;26.70;;
84757;SDS011;74981;52.476;16.656;2024-03-02T03:53:15;54.80;;;26.40;;
84757;SDS011;74981;52.476;16.656;2024-03-02T03:58:18;50.70;;;22.70;;
84757;SDS011;74981;52.476;16.656;2024-03-02T04:03:20;49.70;;;25.20;;
84757;SDS011;74981;52.476;16.656;2024-03-02T04:08:23;53.20;;;25.30;;
84757;SDS011;74981;52.476;16.656;2024-03-02T04:13:25;52.50;;;28.10;;
84757;SDS011;74981;52.476;16.656;2024-03-02T04:18:27;47.30;;;25.70;;
84757;SDS011;74981;52.476;16.656;2024-03-02T04:23:29;48.90;;;23.70;;
84757;SDS011;74981;52.476;16.656;2024-03-02T04:28:32;48.90;;;26.30;;
84757;SDS011;74981;52.476;16.656;2024-03-02T04:33:34;49.20;;;24.90;;
84757;SDS011;74981;52.476;16.656;2024-03-02T04:38:36;47.30;;;25.20;;
84757;SDS011;74981;52.476;16.656;2024-03-02T04:43:39;35.10;;;17.40;;
84757;SDS011;74981;52.476;16.656;2024-03-02T04:48:41;45.10;;;22.80;;
84757;SDS011;74981;52.476;16.656;2024-03-02T04:53:43;51.90;;;26.00;;
84757;SDS011;74981;52.476;16.656;2024-03-02T04:58:46;46.20;;;23.60;;
84757;SDS011;74981;52.476;16.656;2024-03-02T05:03:48;43.30;;;21.10;;
84757;SDS011;74981;52.476;16.656;2024-03-02T05:08:50;53.50;;;25.80;;
84757;SDS011;74981;52.476;16.656;2024-03-02T05:13:53;50.00;;;27.50;;
84757;SDS011;74981;52.476;16.656;2024-03-02T05:18:55;53.00;;;25.30;;
84757;SDS011;74981;52.476;16.656;2024-03-02T05:23:58;45.50;;;23.60;;
84757;SDS011;74981;52.476;16.656;2024-03-02T05:29:00;44.90;;;23.40;;
84757;SDS011;74981;52.476;16.656;2024-03-02T05:34:03;45.90;;;22.40;;
84757;SDS011;74981;52.476;16.656;2024-03-02T05:39:05;48.90;;;24.00;;
84757;SDS011;74981;52.476;16.656;2024-03-02T05:44:08;47.50;;;24.30;;
84757;SDS011;74981;52.476;16.656;2024-03-02T05:49:11;46.70;;;25.30;;
84757;SDS011;74981;52.476;16.656;2024-03-02T05:54:13;51.30;;;26.60;;
84757;SDS011;74981;52.476;16.656;2024-03-02T05:59:16;46.70;;;22.20;;
84757;SDS011;74981;52.476;16.656;2024-03-02T06:04:18;49.00;;;22.00;;
84757;SDS011;74981;52.476;16.656;2024-03-02T06:09:20;48.00;;;23.40;;
84757;SDS011;74981;52.476;16.656;2024-03-02T06:14:23;45.90;;;24.10;;
84757;SDS011;74981;52.476;16.656;2024-03-02T06:19:25;53.60;;;25.90;;
84757;SDS011;74981;52.476;16.656;2024-03-02T06:24:28;47.80;;;24.00;;
84757;SDS011;74981;52.476;16.656;2024-03-02T06:29:32;45.50;;;21.90;;
84757;SDS011;74981;52.476;16.656;2024-03-02T06:34:35;47.30;;;23.10;;
84757;SDS011;74981;52.476;16.656;2024-03-02T06:39:37;44.20;;;22.20;;
84757;SDS011;74981;52.476;16.656;2024-03-02T06:44:39;46.70;;;24.30;;
84757;SDS011;74981;52.476;16.656;2024-03-02T06:49:41;54.00;;;24.90;;
84757;SDS011;74981;52.476;16.656;2024-03-02T06:54:43;47.10;;;24.00;;
84757;SDS011;74981;52.476;16.656;2024-03-02T06:59:46;44.60;;;22.90;;
84757;SDS011;74981;52.476;16.656;2024-03-02T07:04:48;45.70;;;23.60;;
84757;SDS011;74981;52.476;16.656;2024-03-02T07:09:50;49.30;;;24.50;;
84757;SDS011;74981;52.476;16.656;2024-03-02T07:14:53;42.90;;;22.10;;
84757;SDS011;74981;52.476;16.656;2024-03-02T07:19:55;38.80;;;21.90;;
84757;SDS011;74981;52.476;16.656;2024-03-02T07:24:58;43.20;;;23.00;;
84757;SDS011;74981;52.476;16.656;2024-03-02T07:30:00;38.90;;;21.20;;
84757;SDS011;74981;52.476;16.656;2024-03-02T07:35:03;46.60;;;23.10;;
84757;SDS011;74981;52.476;16.656;2024-03-02T07:40:07;44.40;;;25.20;;
84757;SDS011;74981;52.476;16.656;2024-03-02T07:45:11;40.40;;;21.40;;
84757;SDS011;74981;52.476;16.656;2024-03-02T07:50:13;44.40;;;22.90;;
84757;SDS011;74981;52.476;16.656;2024-03-02T07:55:15;46.40;;;22.20;;
84757;SDS011;74981;52.476;16.656;2024-03-02T08:00:18;39.20;;;21.90;;
84757;SDS011;74981;52.476;16.656;2024-03-02T08:05:20;41.90;;;20.40;;
84757;SDS011;74981;52.476;16.656;2024-03-02T08:10:23;46.50;;;23.90;;
84757;SDS011;74981;52.476;16.656;2024-03-02T08:15:26;44.40;;;21.50;;
84757;SDS011;74981;52.476;16.656;2024-03-02T08:20:28;38.90;;;19.50;;
84757;SDS011;74981;52.476;16.656;2024-03-02T08:25:30;47.10;;;26.60;;
84757;SDS011;74981;52.476;16.656;2024-03-02T08:30:33;41.50;;;20.40;;
84757;SDS011;74981;52.476;16.656;2024-03-02T08:35:35;36.40;;;19.90;;
84757;SDS011;74981;52.476;16.656;2024-03-02T08:40:38;41.30;;;20.80;;
84757;SDS011;74981;52.476;16.656;2024-03-02T08:45:40;38.20;;;20.80;;
84757;SDS011;74981;52.476;16.656;2024-03-02T08:50:42;52.40;;;25.90;;
84757;SDS011;74981;52.476;16.656;2024-03-02T08:55:45;43.90;;;24.00;;
84757;SDS011;74981;52.476;16.656;2024-03-02T09:00:48;39.40;;;24.10;;
84757;SDS011;74981;52.476;16.656;2024-03-02T09:05:50;40.30;;;22.70;;
84757;SDS011;74981;52.476;16.656;2024-03-02T09:10:52;34.40;;;19.40;;
84757;SDS011;74981;52.476;16.656;2024-03-02T09:15:55;39.80;;;20.90;;
84757;SDS011;74981;52.476;16.656;2024-03-02T09:20:58;35.50;;;21.00;;
84757;SDS011;74981;52.476;16.656;2024-03-02T09:26:00;34.70;;;20.00;;
84757;SDS011;74981;52.476;16.656;2024-03-02T09:31:02;34.00;;;20.70;;
84757;SDS011;74981;52.476;16.656;2024-03-02T09:36:05;40.70;;;23.70;;
84757;SDS011;74981;52.476;16.656;2024-03-02T09:41:17;41.00;;;23.00;;
84757;SDS011;74981;52.476;16.656;2024-03-02T09:46:20;35.80;;;19.70;;
84757;SDS011;74981;52.476;16.656;2024-03-02T09:51:22;36.30;;;21.00;;
84757;SDS011;74981;52.476;16.656;2024-03-02T09:56:25;31.40;;;18.50;;
84757;SDS011;74981;52.476;16.656;2024-03-02T10:01:27;30.60;;;19.20;;
84757;SDS011;74981;52.476;16.656;2024-03-02T10:06:29;33.10;;;18.20;;
84757;SDS011;74981;52.476;16.656;2024-03-02T10:11:32;35.60;;;20.90;;
84757;SDS011;74981;52.476;16.656;2024-03-02T10:16:37;30.10;;;18.20;;
84757;SDS011;74981;52.476;16.656;2024-03-02T10:21:40;29.00;;;17.70;;
84757;SDS011;74981;52.476;16.656;2024-03-02T10:26:42;29.50;;;17.10;;
84757;SDS011;74981;52.476;16.656;2024-03-02T10:31:45;30.50;;;18.40;;
84757;SDS011;74981;52.476;16.656;2024-03-02T10:36:48;30.00;;;18.80;;
84757;SDS011;74981;52.476;16.656;2024-03-02T10:41:52;25.60;;;14.90;;
84757;SDS011;74981;52.476;16.656;2024-03-02T10:46:56;29.10;;;17.10;;
84757;SDS011;74981;52.476;16.656;2024-03-02T10:52:01;30.80;;;18.10;;
84757;SDS011;74981;52.476;16.656;2024-03-02T10:57:04;31.80;;;18.60;;
84757;SDS011;74981;52.476;16.656;2024-03-02T11:02:08;33.00;;;19.90;;
84757;SDS011;74981;52.476;16.656;2024-03-02T11:07:13;34.90;;;20.70;;
84757;SDS011;74981;52.476;16.656;2024-03-02T11:12:18;30.70;;;19.20;;
84757;SDS011;74981;52.476;16.656;2024-03-02T11:17:36;30.20;;;18.20;;
84757;SDS011;74981;52.476;16.656;2024-03-02T11:33:04;34.50;;;19.10;;
84757;SDS011;74981;52.476;16.656;2024-03-02T11:38:07;33.20;;;17.60;;
84757;SDS011;74981;52.476;16.656;2024-03-02T11:43:11;28.60;;;17.00;;
84757;SDS011;74981;52.476;16.656;2024-03-02T11:48:14;32.20;;;19.70;;
84757;SDS011;74981;52.476;16.656;2024-03-02T11:53:17;32.80;;;17.50;;
84757;SDS011;74981;52.476;16.656;2024-03-02T11:58:20;32.40;;;20.10;;
84757;SDS011;74981;52.476;16.656;2024-03-02T12:03:23;35.40;;;21.50;;
84757;SDS011;74981;52.476;16.656;2024-03-02T12:08:26;33.10;;;19.80;;
84757;SDS011;74981;52.476;16.656;2024-03-02T12:13:37;31.00;;;18.30;;
84757;SDS011;74981;52.476;16.656;2024-03-02T12:18:39;31.50;;;17.40;;
84757;SDS011;74981;52.476;16.656;2024-03-02T12:23:43;32.00;;;17.90;;
84757;SDS011;74981;52.476;16.656;2024-03-02T12:28:46;26.80;;;15.20;;
84757;SDS011;74981;52.476;16.656;2024-03-02T12:33:48;28.70;;;17.10;;
84757;SDS011;74981;52.476;16.656;2024-03-02T12:38:53;31.60;;;18.20;;
84757;SDS011;74981;52.476;16.656;2024-03-02T12:43:55;33.10;;;18.90;;
84757;SDS011;74981;52.476;16.656;2024-03-02T12:48:58;35.10;;;21.70;;
84757;SDS011;74981;52.476;16.656;2024-03-02T12:54:07;40.40;;;23.30;;
84757;SDS011;74981;52.476;16.656;2024-03-02T12:59:10;29.10;;;18.80;;
84757;SDS011;74981;52.476;16.656;2024-03-02T13:04:22;34.10;;;20.80;;
84757;SDS011;74981;52.476;16.656;2024-03-02T13:09:25;36.20;;;21.30;;
84757;SDS011;74981;52.476;16.656;2024-03-02T13:14:28;35.70;;;22.30;;
84757;SDS011;74981;52.476;16.656;2024-03-02T13:19:33;34.00;;;21.70;;
84757;SDS011;74981;52.476;16.656;2024-03-02T13:24:35;33.60;;;21.70;;
84757;SDS011;74981;52.476;16.656;2024-03-02T13:29:38;35.50;;;20.20;;
84757;SDS011;74981;52.476;16.656;2024-03-02T13:34:40;33.30;;;21.50;;
84757;SDS011;74981;52.476;16.656;2024-03-02T13:39:42;29.80;;;19.00;;
84757;SDS011;74981;52.476;16.656;2024-03-02T13:44:45;32.90;;;19.00;;
84757;SDS011;74981;52.476;16.656;2024-03-02T13:49:47;27.20;;;16.70;;
84757;SDS011;74981;52.476;16.656;2024-03-02T13:54:50;21.90;;;14.20;;
84757;SDS011;74981;52.476;16.656;2024-03-02T13:59:52;26.70;;;16.60;;
84757;SDS011;74981;52.476;16.656;2024-03-02T14:04:55;26.60;;;16.40;;
84757;SDS011;74981;52.476;16.656;2024-03-02T14:09:57;25.00;;;15.60;;
84757;SDS011;74981;52.476;16.656;2024-03-02T14:15:00;23.80;;;15.50;;
84757;SDS011;74981;52.476;16.656;2024-03-02T14:20:02;19.10;;;12.00;;
84757;SDS011;74981;52.476;16.656;2024-03-02T14:25:05;25.40;;;14.30;;
84757;SDS011;74981;52.476;16.656;2024-03-02T14:35:11;25.20;;;13.70;;
84757;SDS011;74981;52.476;16.656;2024-03-02T14:40:13;21.40;;;13.10;;
84757;SDS011;74981;52.476;16.656;2024-03-02T14:45:16;21.20;;;14.10;;
84757;SDS011;74981;52.476;16.656;2024-03-02T14:50:18;21.40;;;12.40;;
84757;SDS011;74981;52.476;16.656;2024-03-02T14:55:20;23.90;;;14.00;;
84757;SDS011;74981;52.476;16.656;2024-03-02T15:00:23;24.70;;;14.30;;
84757;SDS011;74981;52.476;16.656;2024-03-02T15:05:25;39.00;;;20.10;;
84757;SDS011;74981;52.476;16.656;2024-03-02T15:10:28;30.00;;;16.70;;
84757;SDS011;74981;52.476;16.656;2024-03-02T15:15:30;28.40;;;16.90;;
84757;SDS011;74981;52.476;16.656;2024-03-02T15:20:33;38.70;;;21.40;;
84757;SDS011;74981;52.476;16.656;2024-03-02T15:25:35;31.00;;;19.10;;
84757;SDS011;74981;52.476;16.656;2024-03-02T15:30:37;32.50;;;17.30;;
84757;SDS011;74981;52.476;16.656;2024-03-02T15:35:39;38.60;;;22.30;;
84757;SDS011;74981;52.476;16.656;2024-03-02T15:40:42;32.90;;;19.80;;
84757;SDS011;74981;52.476;16.656;2024-03-02T15:45:44;35.20;;;19.20;;
84757;SDS011;74981;52.476;16.656;2024-03-02T15:50:46;35.80;;;20.50;;
84757;SDS011;74981;52.476;16.656;2024-03-02T15:55:57;39.50;;;21.50;;
84757;SDS011;74981;52.476;16.656;2024-03-02T16:00:59;38.30;;;21.90;;
84757;SDS011;74981;52.476;16.656;2024-03-02T16:06:01;36.10;;;20.10;;
84757;SDS011;74981;52.476;16.656;2024-03-02T16:11:04;38.10;;;21.60;;
84757;SDS011;74981;52.476;16.656;2024-03-02T16:16:06;39.80;;;21.50;;
84757;SDS011;74981;52.476;16.656;2024-03-02T16:21:09;49.70;;;28.90;;
84757;SDS011;74981;52.476;16.656;2024-03-02T16:26:11;43.80;;;24.40;;
84757;SDS011;74981;52.476;16.656;2024-03-02T16:31:13;37.40;;;20.90;;
84757;SDS011;74981;52.476;16.656;2024-03-02T16:36:16;38.90;;;21.60;;
84757;SDS011;74981;52.476;16.656;2024-03-02T16:41:18;41.50;;;24.60;;
84757;SDS011;74981;52.476;16.656;2024-03-02T16:46:20;39.30;;;23.40;;
84757;SDS011;74981;52.476;16.656;2024-03-02T16:51:22;37.90;;;21.90;;
84757;SDS011;74981;52.476;16.656;2024-03-02T16:56:25;31.30;;;18.40;;
84757;SDS011;74981;52.476;16.656;2024-03-02T17:01:27;27.50;;;15.20;;
84757;SDS011;74981;52.476;16.656;2024-03-02T17:06:29;40.60;;;23.00;;
84757;SDS011;74981;52.476;16.656;2024-03-02T17:11:32;37.80;;;22.40;;
84757;SDS011;74981;52.476;16.656;2024-03-02T17:16:34;33.20;;;20.60;;
84757;SDS011;74981;52.476;16.656;2024-03-02T17:21:36;40.50;;;25.10;;
84757;SDS011;74981;52.476;16.656;2024-03-02T17:26:39;38.30;;;24.20;;
84757;SDS011;74981;52.476;16.656;2024-03-02T17:31:41;39.00;;;22.70;;
84757;SDS011;74981;52.476;16.656;2024-03-02T17:36:43;35.50;;;18.70;;
84757;SDS011;74981;52.476;16.656;2024-03-02T17:41:45;38.20;;;22.90;;
84757;SDS011;74981;52.476;16.656;2024-03-02T17:46:48;38.60;;;21.10;;
84757;SDS011;74981;52.476;16.656;2024-03-02T17:51:51;40.60;;;23.90;;
84757;SDS011;74981;52.476;16.656;2024-03-02T17:56:53;40.30;;;23.10;;
84757;SDS011;74981;52.476;16.656;2024-03-02T18:01:55;46.00;;;28.70;;
84757;SDS011;74981;52.476;16.656;2024-03-02T18:06:57;41.80;;;22.80;;
84757;SDS011;74981;52.476;16.656;2024-03-02T18:11:59;41.70;;;24.50;;
84757;SDS011;74981;52.476;16.656;2024-03-02T18:17:02;34.00;;;18.90;;
84757;SDS011;74981;52.476;16.656;2024-03-02T18:22:04;42.70;;;25.20;;
84757;SDS011;74981;52.476;16.656;2024-03-02T18:27:07;41.60;;;23.00;;
84757;SDS011;74981;52.476;16.656;2024-03-02T18:32:09;45.70;;;25.90;;
84757;SDS011;74981;52.476;16.656;2024-03-02T18:37:11;47.60;;;25.50;;
84757;SDS011;74981;52.476;16.656;2024-03-02T18:42:14;35.80;;;18.80;;
84757;SDS011;74981;52.476;16.656;2024-03-02T18:47:16;45.90;;;25.30;;
84757;SDS011;74981;52.476;16.656;2024-03-02T18:52:19;47.90;;;26.40;;
84757;SDS011;74981;52.476;16.656;2024-03-02T18:57:21;48.70;;;26.80;;
84757;SDS011;74981;52.476;16.656;2024-03-02T19:02:23;51.40;;;26.50;;
84757;SDS011;74981;52.476;16.656;2024-03-02T19:07:26;48.00;;;24.20;;
84757;SDS011;74981;52.476;16.656;2024-03-02T19:12:28;54.70;;;27.30;;
84757;SDS011;74981;52.476;16.656;2024-03-02T19:17:30;44.50;;;23.70;;
84757;SDS011;74981;52.476;16.656;2024-03-02T19:22:32;50.50;;;26.80;;
84757;SDS011;74981;52.476;16.656;2024-03-02T19:27:34;50.30;;;25.40;;
84757;SDS011;74981;52.476;16.656;2024-03-02T19:32:37;47.90;;;29.00;;
84757;SDS011;74981;52.476;16.656;2024-03-02T19:37:39;50.10;;;27.20;;
84757;SDS011;74981;52.476;16.656;2024-03-02T19:42:41;44.40;;;23.80;;
84757;SDS011;74981;52.476;16.656;2024-03-02T19:47:44;51.30;;;27.60;;
84757;SDS011;74981;52.476;16.656;2024-03-02T19:52:47;52.40;;;30.50;;
84757;SDS011;74981;52.476;16.656;2024-03-02T19:57:49;44.40;;;21.60;;
84757;SDS011;74981;52.476;16.656;2024-03-02T20:02:52;54.20;;;28.10;;
84757;SDS011;74981;52.476;16.656;2024-03-02T20:07:54;48.30;;;27.30;;
84757;SDS011;74981;52.476;16.656;2024-03-02T20:12:56;57.80;;;29.50;;
84757;SDS011;74981;52.476;16.656;2024-03-02T20:17:58;50.90;;;26.00;;
84757;SDS011;74981;52.476;16.656;2024-03-02T20:23:01;50.30;;;26.30;;
84757;SDS011;74981;52.476;16.656;2024-03-02T20:28:03;49.70;;;24.30;;
84757;SDS011;74981;52.476;16.656;2024-03-02T20:33:06;54.80;;;26.40;;
84757;SDS011;74981;52.476;16.656;2024-03-02T20:38:08;47.90;;;25.50;;
84757;SDS011;74981;52.476;16.656;2024-03-02T20:43:11;56.80;;;27.10;;
84757;SDS011;74981;52.476;16.656;2024-03-02T20:48:13;50.70;;;25.20;;
84757;SDS011;74981;52.476;16.656;2024-03-02T20:53:15;52.00;;;27.20;;
84757;SDS011;74981;52.476;16.656;2024-03-02T20:58:18;50.00;;;23.80;;
84757;SDS011;74981;52.476;16.656;2024-03-02T21:03:20;48.10;;;24.10;;
84757;SDS011;74981;52.476;16.656;2024-03-02T21:08:23;54.10;;;26.70;;
84757;SDS011;74981;52.476;16.656;2024-03-02T21:13:25;46.10;;;21.50;;
84757;SDS011;74981;52.476;16.656;2024-03-02T21:18:27;57.10;;;29.00;;
84757;SDS011;74981;52.476;16.656;2024-03-02T21:23:30;47.50;;;23.40;;
84757;SDS011;74981;52.476;16.656;2024-03-02T21:28:32;48.30;;;24.30;;
84757;SDS011;74981;52.476;16.656;2024-03-02T21:33:34;54.30;;;26.80;;
84757;SDS011;74981;52.476;16.656;2024-03-02T21:38:37;54.10;;;25.80;;
84757;SDS011;74981;52.476;16.656;2024-03-02T21:43:39;42.80;;;22.10;;
84757;SDS011;74981;52.476;16.656;2024-03-02T21:48:42;51.60;;;25.40;;
84757;SDS011;74981;52.476;16.656;2024-03-02T21:53:45;53.00;;;28.30;;
84757;SDS011;74981;52.476;16.656;2024-03-02T21:58:47;53.50;;;26.90;;
84757;SDS011;74981;52.476;16.656;2024-03-02T22:03:49;50.10;;;26.50;;
84757;SDS011;74981;52.476;16.656;2024-03-02T22:08:51;50.60;;;25.00;;
84757;SDS011;74981;52.476;16.656;2024-03-02T22:13:54;52.60;;;25.70;;
84757;SDS011;74981;52.476;16.656;2024-03-02T22:18:56;49.80;;;24.90;;
84757;SDS011;74981;52.476;16.656;2024-03-02T22:23:58;53.20;;;27.00;;
84757;SDS011;74981;52.476;16.656;2024-03-02T22:29:00;52.90;;;26.00;;
84757;SDS011;74981;52.476;16.656;2024-03-02T22:34:03;53.40;;;26.80;;
84757;SDS011;74981;52.476;16.656;2024-03-02T22:39:05;50.80;;;25.00;;
84757;SDS011;74981;52.476;16.656;2024-03-02T22:44:07;52.90;;;27.30;;
84757;SDS011;74981;52.476;16.656;2024-03-02T22:49:10;53.50;;;26.60;;
84757;SDS011;74981;52.476;16.656;2024-03-02T22:54:13;52.30;;;25.80;;
84757;SDS011;74981;52.476;16.656;2024-03-02T22:59:15;51.10;;;24.90;;
84757;SDS011;74981;52.476;16.656;2024-03-02T23:04:17;43.00;;;20.00;;
84757;SDS011;74981;52.476;16.656;2024-03-02T23:09:20;53.40;;;26.90;;
84757;SDS011;74981;52.476;16.656;2024-03-02T23:14:22;48.70;;;25.40;;
84757;SDS011;74981;52.476;16.656;2024-03-02T23:19:24;54.80;;;26.10;;
84757;SDS011;74981;52.476;16.656;2024-03-02T23:24:26;49.70;;;23.70;;
84757;SDS011;74981;52.476;16.656;2024-03-02T23:29:29;54.10;;;25.80;;
84757;SDS011;74981;52.476;16.656;2024-03-02T23:34:31;52.50;;;25.60;;
84757;SDS011;74981;52.476;16.656;2024-03-02T23:39:34;55.90;;;28.00;;
84757;SDS011;74981;52.476;16.656;2024-03-02T23:44:37;53.90;;;26.30;;
84757;SDS011;74981;52.476;16.656;2024-03-02T23:49:39;53.60;;;27.90;;
84757;SDS011;74981;52.476;16.656;2024-03-02T23:54:42;53.90;;;27.40;;
84757;SDS011;74981;52.476;16.656;2024-03-02T23:59:44;57.10;;;28.10;;
